sensor_id;sensor_type;location;lat;lon;timestamp;temperature;humidity
1123;DHT22;548;48.778;9.252;2022-07-23T00:01:19;25.90;94.40
1123;DHT22;548;48.778;9.252;2022-07-23T00:03:46;25.80;94.50
1123;DHT22;548;48.778;9.252;2022-07-23T00:06:13;25.80;94.80
1123;DHT22;548;48.778;9.252;2022-07-23T00:08:39;25.70;94.70
1123;DHT22;548;48.778;9.252;2022-07-23T00:11:08;25.70;95.00
1123;DHT22;548;48.778;9.252;2022-07-23T00:13:34;25.60;95.00
1123;DHT22;548;48.778;9.252;2022-07-23T00:16:01;25.60;94.90
1123;DHT22;548;48.778;9.252;2022-07-23T00:18:28;25.60;94.80
1123;DHT22;548;48.778;9.252;2022-07-23T00:20:55;25.60;94.80
1123;DHT22;548;48.778;9.252;2022-07-23T00:23:22;25.50;94.80
1123;DHT22;548;48.778;9.252;2022-07-23T00:25:50;25.40;94.30
1123;DHT22;548;48.778;9.252;2022-07-23T00:28:18;25.40;93.90
1123;DHT22;548;48.778;9.252;2022-07-23T00:30:45;25.40;93.90
1123;DHT22;548;48.778;9.252;2022-07-23T00:33:11;25.40;93.50
1123;DHT22;548;48.778;9.252;2022-07-23T00:35:41;25.40;93.50
1123;DHT22;548;48.778;9.252;2022-07-23T00:38:09;25.40;93.40
1123;DHT22;548;48.778;9.252;2022-07-23T00:40:36;25.40;93.30
1123;DHT22;548;48.778;9.252;2022-07-23T00:43:04;25.40;93.50
1123;DHT22;548;48.778;9.252;2022-07-23T00:45:32;25.30;95.10
1123;DHT22;548;48.778;9.252;2022-07-23T00:47:59;24.80;97.00
1123;DHT22;548;48.778;9.252;2022-07-23T00:50:26;24.20;99.90
1123;DHT22;548;48.778;9.252;2022-07-23T00:52:53;23.70;99.90
1123;DHT22;548;48.778;9.252;2022-07-23T00:55:20;23.20;99.90
1123;DHT22;548;48.778;9.252;2022-07-23T00:57:47;22.90;99.90
1123;DHT22;548;48.778;9.252;2022-07-23T01:00:15;22.70;99.90
1123;DHT22;548;48.778;9.252;2022-07-23T01:02:44;22.60;99.90
1123;DHT22;548;48.778;9.252;2022-07-23T01:05:11;22.50;99.90
1123;DHT22;548;48.778;9.252;2022-07-23T01:07:38;22.70;99.90
1123;DHT22;548;48.778;9.252;2022-07-23T01:10:06;23.00;99.90
1123;DHT22;548;48.778;9.252;2022-07-23T01:12:53;23.20;99.90
1123;DHT22;548;48.778;9.252;2022-07-23T01:15:21;23.50;99.90
1123;DHT22;548;48.778;9.252;2022-07-23T01:17:49;23.60;99.90
1123;DHT22;548;48.778;9.252;2022-07-23T01:20:16;23.70;99.90
1123;DHT22;548;48.778;9.252;2022-07-23T01:22:44;23.80;99.90
1123;DHT22;548;48.778;9.252;2022-07-23T01:25:11;23.80;99.90
1123;DHT22;548;48.778;9.252;2022-07-23T01:27:38;23.90;99.90
1123;DHT22;548;48.778;9.252;2022-07-23T01:30:06;23.90;99.90
1123;DHT22;548;48.778;9.252;2022-07-23T01:32:33;24.00;99.90
1123;DHT22;548;48.778;9.252;2022-07-23T01:35:00;24.00;99.90
1123;DHT22;548;48.778;9.252;2022-07-23T01:37:27;24.10;99.90
1123;DHT22;548;48.778;9.252;2022-07-23T01:39:55;24.10;99.90
1123;DHT22;548;48.778;9.252;2022-07-23T01:42:21;24.10;99.90
1123;DHT22;548;48.778;9.252;2022-07-23T01:44:48;24.10;99.90
1123;DHT22;548;48.778;9.252;2022-07-23T01:47:16;24.10;99.90
1123;DHT22;548;48.778;9.252;2022-07-23T01:49:43;24.10;99.90
1123;DHT22;548;48.778;9.252;2022-07-23T01:52:09;24.10;99.90
1123;DHT22;548;48.778;9.252;2022-07-23T01:54:38;24.00;99.90
1123;DHT22;548;48.778;9.252;2022-07-23T01:57:06;23.80;99.90
1123;DHT22;548;48.778;9.252;2022-07-23T01:59:33;23.80;99.90
1123;DHT22;548;48.778;9.252;2022-07-23T02:02:01;23.80;99.90
1123;DHT22;548;48.778;9.252;2022-07-23T02:04:29;23.80;99.90
1123;DHT22;548;48.778;9.252;2022-07-23T02:06:55;23.80;99.90
1123;DHT22;548;48.778;9.252;2022-07-23T02:09:22;23.80;99.90
1123;DHT22;548;48.778;9.252;2022-07-23T02:11:49;23.70;99.90
1123;DHT22;548;48.778;9.252;2022-07-23T02:14:17;23.70;99.90
1123;DHT22;548;48.778;9.252;2022-07-23T02:16:44;23.60;99.90
1123;DHT22;548;48.778;9.252;2022-07-23T02:19:10;23.50;99.90
1123;DHT22;548;48.778;9.252;2022-07-23T02:21:37;23.60;99.90
1123;DHT22;548;48.778;9.252;2022-07-23T02:24:04;23.50;99.90
1123;DHT22;548;48.778;9.252;2022-07-23T02:26:31;23.40;99.90
1123;DHT22;548;48.778;9.252;2022-07-23T02:29:00;23.40;99.90
1123;DHT22;548;48.778;9.252;2022-07-23T02:31:28;23.40;99.90
1123;DHT22;548;48.778;9.252;2022-07-23T02:33:55;23.40;99.90
1123;DHT22;548;48.778;9.252;2022-07-23T02:36:22;23.40;99.90
1123;DHT22;548;48.778;9.252;2022-07-23T02:38:48;23.40;99.90
1123;DHT22;548;48.778;9.252;2022-07-23T02:41:15;23.40;99.90
1123;DHT22;548;48.778;9.252;2022-07-23T02:43:42;23.40;99.90
1123;DHT22;548;48.778;9.252;2022-07-23T02:46:09;23.30;99.90
1123;DHT22;548;48.778;9.252;2022-07-23T02:48:37;23.20;99.90
1123;DHT22;548;48.778;9.252;2022-07-23T02:51:04;23.20;99.90
1123;DHT22;548;48.778;9.252;2022-07-23T02:53:30;23.10;99.90
1123;DHT22;548;48.778;9.252;2022-07-23T02:55:57;23.10;99.90
1123;DHT22;548;48.778;9.252;2022-07-23T02:58:24;23.10;99.90
1123;DHT22;548;48.778;9.252;2022-07-23T03:00:52;23.10;99.90
1123;DHT22;548;48.778;9.252;2022-07-23T03:03:19;23.00;99.90
1123;DHT22;548;48.778;9.252;2022-07-23T03:05:47;23.00;99.90
1123;DHT22;548;48.778;9.252;2022-07-23T03:08:15;23.00;99.90
1123;DHT22;548;48.778;9.252;2022-07-23T03:10:42;23.00;99.90
1123;DHT22;548;48.778;9.252;2022-07-23T03:13:08;23.00;99.90
1123;DHT22;548;48.778;9.252;2022-07-23T03:15:35;23.00;99.90
1123;DHT22;548;48.778;9.252;2022-07-23T03:18:02;23.00;99.90
1123;DHT22;548;48.778;9.252;2022-07-23T03:20:29;22.90;99.90
1123;DHT22;548;48.778;9.252;2022-07-23T03:22:57;22.90;99.90
1123;DHT22;548;48.778;9.252;2022-07-23T03:25:23;22.90;99.90
1123;DHT22;548;48.778;9.252;2022-07-23T03:27:50;22.90;99.90
1123;DHT22;548;48.778;9.252;2022-07-23T03:30:17;22.90;99.90
1123;DHT22;548;48.778;9.252;2022-07-23T03:32:43;22.80;99.90
1123;DHT22;548;48.778;9.252;2022-07-23T03:35:10;22.80;99.90
1123;DHT22;548;48.778;9.252;2022-07-23T03:37:37;22.80;99.90
1123;DHT22;548;48.778;9.252;2022-07-23T03:40:06;22.80;99.90
1123;DHT22;548;48.778;9.252;2022-07-23T03:42:33;22.70;99.90
1123;DHT22;548;48.778;9.252;2022-07-23T03:45:01;22.80;99.90
1123;DHT22;548;48.778;9.252;2022-07-23T03:47:28;22.80;99.90
1123;DHT22;548;48.778;9.252;2022-07-23T03:49:55;22.70;99.90
1123;DHT22;548;48.778;9.252;2022-07-23T03:52:22;22.70;99.90
1123;DHT22;548;48.778;9.252;2022-07-23T03:54:48;22.80;99.90
1123;DHT22;548;48.778;9.252;2022-07-23T03:57:16;22.70;99.90
1123;DHT22;548;48.778;9.252;2022-07-23T03:59:43;22.80;99.90
1123;DHT22;548;48.778;9.252;2022-07-23T04:02:10;22.70;99.90
1123;DHT22;548;48.778;9.252;2022-07-23T04:04:36;22.70;99.90
1123;DHT22;548;48.778;9.252;2022-07-23T04:07:04;22.70;99.90
1123;DHT22;548;48.778;9.252;2022-07-23T04:09:32;22.70;99.90
1123;DHT22;548;48.778;9.252;2022-07-23T04:11:59;22.60;99.90
1123;DHT22;548;48.778;9.252;2022-07-23T04:14:27;22.70;99.90
1123;DHT22;548;48.778;9.252;2022-07-23T04:16:54;22.80;99.90
1123;DHT22;548;48.778;9.252;2022-07-23T04:19:21;22.90;99.90
1123;DHT22;548;48.778;9.252;2022-07-23T04:21:48;22.90;99.90
1123;DHT22;548;48.778;9.252;2022-07-23T04:24:14;22.90;99.90
1123;DHT22;548;48.778;9.252;2022-07-23T04:26:41;23.00;99.90
1123;DHT22;548;48.778;9.252;2022-07-23T04:29:08;23.00;99.90
1123;DHT22;548;48.778;9.252;2022-07-23T04:31:36;23.00;99.90
1123;DHT22;548;48.778;9.252;2022-07-23T04:34:03;23.00;99.90
1123;DHT22;548;48.778;9.252;2022-07-23T04:36:30;23.00;99.90
1123;DHT22;548;48.778;9.252;2022-07-23T04:38:56;23.10;99.90
1123;DHT22;548;48.778;9.252;2022-07-23T04:41:23;23.20;99.90
1123;DHT22;548;48.778;9.252;2022-07-23T04:43:50;23.20;99.90
1123;DHT22;548;48.778;9.252;2022-07-23T04:46:17;23.20;99.90
1123;DHT22;548;48.778;9.252;2022-07-23T04:48:45;23.20;99.90
1123;DHT22;548;48.778;9.252;2022-07-23T04:51:11;23.20;99.90
1123;DHT22;548;48.778;9.252;2022-07-23T04:53:38;23.20;99.90
1123;DHT22;548;48.778;9.252;2022-07-23T04:56:05;23.30;99.90
1123;DHT22;548;48.778;9.252;2022-07-23T04:58:32;23.60;99.90
1123;DHT22;548;48.778;9.252;2022-07-23T05:00:59;23.70;99.90
1123;DHT22;548;48.778;9.252;2022-07-23T05:03:25;23.70;99.90
1123;DHT22;548;48.778;9.252;2022-07-23T05:05:54;23.80;99.90
1123;DHT22;548;48.778;9.252;2022-07-23T05:08:20;23.70;99.90
1123;DHT22;548;48.778;9.252;2022-07-23T05:10:47;23.70;99.90
1123;DHT22;548;48.778;9.252;2022-07-23T05:13:14;23.70;99.90
1123;DHT22;548;48.778;9.252;2022-07-23T05:15:41;23.80;99.90
1123;DHT22;548;48.778;9.252;2022-07-23T05:18:08;24.00;99.90
1123;DHT22;548;48.778;9.252;2022-07-23T05:20:34;24.30;99.90
1123;DHT22;548;48.778;9.252;2022-07-23T05:23:03;24.50;99.90
1123;DHT22;548;48.778;9.252;2022-07-23T05:25:29;24.60;99.90
1123;DHT22;548;48.778;9.252;2022-07-23T05:27:56;24.50;99.90
1123;DHT22;548;48.778;9.252;2022-07-23T05:30:23;24.40;99.90
1123;DHT22;548;48.778;9.252;2022-07-23T05:32:50;24.30;99.90
1123;DHT22;548;48.778;9.252;2022-07-23T05:35:17;24.30;99.90
1123;DHT22;548;48.778;9.252;2022-07-23T05:37:43;24.30;99.90
1123;DHT22;548;48.778;9.252;2022-07-23T05:40:12;24.40;99.90
1123;DHT22;548;48.778;9.252;2022-07-23T05:42:40;24.50;99.90
1123;DHT22;548;48.778;9.252;2022-07-23T05:45:08;24.60;99.90
1123;DHT22;548;48.778;9.252;2022-07-23T05:47:42;24.60;99.90
1123;DHT22;548;48.778;9.252;2022-07-23T05:50:10;24.40;99.90
1123;DHT22;548;48.778;9.252;2022-07-23T05:52:38;24.30;99.90
1123;DHT22;548;48.778;9.252;2022-07-23T05:55:05;24.20;99.90
1123;DHT22;548;48.778;9.252;2022-07-23T05:57:34;24.10;99.90
1123;DHT22;548;48.778;9.252;2022-07-23T06:00:00;24.30;99.90
1123;DHT22;548;48.778;9.252;2022-07-23T06:02:27;24.50;99.90
1123;DHT22;548;48.778;9.252;2022-07-23T06:04:54;24.90;99.90
1123;DHT22;548;48.778;9.252;2022-07-23T06:07:20;25.10;99.90
1123;DHT22;548;48.778;9.252;2022-07-23T06:09:47;25.10;99.90
1123;DHT22;548;48.778;9.252;2022-07-23T06:12:14;25.30;99.90
1123;DHT22;548;48.778;9.252;2022-07-23T06:14:42;25.30;99.90
1123;DHT22;548;48.778;9.252;2022-07-23T06:17:09;25.20;99.90
1123;DHT22;548;48.778;9.252;2022-07-23T06:19:36;25.20;99.90
1123;DHT22;548;48.778;9.252;2022-07-23T06:22:03;25.40;99.90
1123;DHT22;548;48.778;9.252;2022-07-23T06:24:29;25.30;99.90
1123;DHT22;548;48.778;9.252;2022-07-23T06:26:56;25.50;99.90
1123;DHT22;548;48.778;9.252;2022-07-23T06:29:23;25.90;99.90
1123;DHT22;548;48.778;9.252;2022-07-23T06:31:51;26.30;99.90
1123;DHT22;548;48.778;9.252;2022-07-23T06:34:17;26.50;99.90
1123;DHT22;548;48.778;9.252;2022-07-23T06:36:44;26.60;99.40
1123;DHT22;548;48.778;9.252;2022-07-23T06:39:11;27.20;98.20
1123;DHT22;548;48.778;9.252;2022-07-23T06:41:38;27.80;96.00
1123;DHT22;548;48.778;9.252;2022-07-23T06:44:04;28.40;94.40
1123;DHT22;548;48.778;9.252;2022-07-23T06:46:31;29.10;92.90
1123;DHT22;548;48.778;9.252;2022-07-23T06:48:59;29.10;91.10
1123;DHT22;548;48.778;9.252;2022-07-23T06:51:26;28.80;92.00
1123;DHT22;548;48.778;9.252;2022-07-23T06:53:52;28.70;91.80
1123;DHT22;548;48.778;9.252;2022-07-23T06:56:19;28.80;92.30
1123;DHT22;548;48.778;9.252;2022-07-23T06:58:46;28.70;91.50
1123;DHT22;548;48.778;9.252;2022-07-23T07:01:13;28.30;91.50
1123;DHT22;548;48.778;9.252;2022-07-23T07:03:39;28.00;91.70
1123;DHT22;548;48.778;9.252;2022-07-23T07:06:08;27.70;92.30
1123;DHT22;548;48.778;9.252;2022-07-23T07:08:34;27.60;92.90
1123;DHT22;548;48.778;9.252;2022-07-23T07:11:01;27.50;92.90
1123;DHT22;548;48.778;9.252;2022-07-23T07:13:28;27.20;93.40
1123;DHT22;548;48.778;9.252;2022-07-23T07:15:55;26.90;93.70
1123;DHT22;548;48.778;9.252;2022-07-23T07:18:21;26.60;94.80
1123;DHT22;548;48.778;9.252;2022-07-23T07:20:48;26.50;94.70
1123;DHT22;548;48.778;9.252;2022-07-23T07:23:16;26.40;95.40
1123;DHT22;548;48.778;9.252;2022-07-23T07:25:43;26.40;95.90
1123;DHT22;548;48.778;9.252;2022-07-23T07:28:19;26.40;95.90
1123;DHT22;548;48.778;9.252;2022-07-23T07:30:45;25.90;96.90
1123;DHT22;548;48.778;9.252;2022-07-23T07:33:12;25.50;98.20
1123;DHT22;548;48.778;9.252;2022-07-23T07:35:39;25.10;99.20
1123;DHT22;548;48.778;9.252;2022-07-23T07:38:06;25.00;99.90
1123;DHT22;548;48.778;9.252;2022-07-23T07:40:34;25.00;99.90
1123;DHT22;548;48.778;9.252;2022-07-23T07:43:00;24.80;99.90
1123;DHT22;548;48.778;9.252;2022-07-23T07:45:28;24.50;99.90
1123;DHT22;548;48.778;9.252;2022-07-23T07:47:55;24.30;99.90
1123;DHT22;548;48.778;9.252;2022-07-23T07:50:22;24.40;99.90
1123;DHT22;548;48.778;9.252;2022-07-23T07:52:49;24.70;99.90
1123;DHT22;548;48.778;9.252;2022-07-23T07:55:16;25.40;99.90
1123;DHT22;548;48.778;9.252;2022-07-23T07:57:44;26.00;99.90
1123;DHT22;548;48.778;9.252;2022-07-23T08:00:11;26.90;98.50
1123;DHT22;548;48.778;9.252;2022-07-23T08:02:43;27.40;97.10
1123;DHT22;548;48.778;9.252;2022-07-23T08:05:10;27.20;97.50
1123;DHT22;548;48.778;9.252;2022-07-23T08:07:37;26.90;98.40
1123;DHT22;548;48.778;9.252;2022-07-23T08:10:05;27.20;98.40
1123;DHT22;548;48.778;9.252;2022-07-23T08:12:42;27.90;95.80
1123;DHT22;548;48.778;9.252;2022-07-23T08:15:12;28.80;94.30
1123;DHT22;548;48.778;9.252;2022-07-23T08:17:39;29.60;92.10
1123;DHT22;548;48.778;9.252;2022-07-23T08:20:07;29.60;91.30
1123;DHT22;548;48.778;9.252;2022-07-23T08:22:49;29.90;90.70
1123;DHT22;548;48.778;9.252;2022-07-23T08:25:19;30.30;87.90
1123;DHT22;548;48.778;9.252;2022-07-23T08:27:46;30.50;86.30
1123;DHT22;548;48.778;9.252;2022-07-23T08:30:14;30.00;88.50
1123;DHT22;548;48.778;9.252;2022-07-23T08:32:49;28.70;91.60
1123;DHT22;548;48.778;9.252;2022-07-23T08:35:15;28.40;92.30
1123;DHT22;548;48.778;9.252;2022-07-23T08:37:42;27.50;93.60
1123;DHT22;548;48.778;9.252;2022-07-23T08:40:10;26.60;96.10
1123;DHT22;548;48.778;9.252;2022-07-23T08:42:37;26.10;98.60
1123;DHT22;548;48.778;9.252;2022-07-23T08:45:07;25.90;99.40
1123;DHT22;548;48.778;9.252;2022-07-23T08:47:37;25.60;99.90
1123;DHT22;548;48.778;9.252;2022-07-23T08:50:05;25.40;99.90
1123;DHT22;548;48.778;9.252;2022-07-23T08:52:34;25.80;99.90
1123;DHT22;548;48.778;9.252;2022-07-23T08:55:02;26.30;99.80
1123;DHT22;548;48.778;9.252;2022-07-23T08:57:29;27.10;97.60
1123;DHT22;548;48.778;9.252;2022-07-23T08:59:56;28.40;95.00
1123;DHT22;548;48.778;9.252;2022-07-23T09:02:23;29.40;91.60
1123;DHT22;548;48.778;9.252;2022-07-23T09:04:51;30.30;88.50
1123;DHT22;548;48.778;9.252;2022-07-23T09:07:18;30.80;86.00
1123;DHT22;548;48.778;9.252;2022-07-23T09:09:45;31.20;83.50
1123;DHT22;548;48.778;9.252;2022-07-23T09:12:11;32.60;78.30
1123;DHT22;548;48.778;9.252;2022-07-23T09:14:40;33.40;72.10
1123;DHT22;548;48.778;9.252;2022-07-23T09:17:11;33.80;70.60
1123;DHT22;548;48.778;9.252;2022-07-23T09:19:38;34.40;67.90
1123;DHT22;548;48.778;9.252;2022-07-23T09:22:23;34.70;65.90
1123;DHT22;548;48.778;9.252;2022-07-23T09:25:12;34.70;64.90
1123;DHT22;548;48.778;9.252;2022-07-23T09:27:47;35.40;62.00
1123;DHT22;548;48.778;9.252;2022-07-23T09:30:15;35.60;59.70
1123;DHT22;548;48.778;9.252;2022-07-23T09:32:42;35.70;59.80
1123;DHT22;548;48.778;9.252;2022-07-23T09:35:09;35.90;59.10
1123;DHT22;548;48.778;9.252;2022-07-23T09:37:37;36.30;58.90
1123;DHT22;548;48.778;9.252;2022-07-23T09:40:05;36.70;57.50
1123;DHT22;548;48.778;9.252;2022-07-23T09:42:32;37.10;56.00
1123;DHT22;548;48.778;9.252;2022-07-23T09:44:59;37.10;54.10
1123;DHT22;548;48.778;9.252;2022-07-23T09:47:27;37.80;53.10
1123;DHT22;548;48.778;9.252;2022-07-23T09:49:59;38.30;52.00
1123;DHT22;548;48.778;9.252;2022-07-23T09:52:27;38.80;49.60
1123;DHT22;548;48.778;9.252;2022-07-23T09:54:59;38.70;47.50
1123;DHT22;548;48.778;9.252;2022-07-23T09:57:26;38.80;47.00
1123;DHT22;548;48.778;9.252;2022-07-23T09:59:58;38.90;47.30
1123;DHT22;548;48.778;9.252;2022-07-23T10:02:25;37.70;47.50
1123;DHT22;548;48.778;9.252;2022-07-23T10:04:54;37.00;49.30
1123;DHT22;548;48.778;9.252;2022-07-23T10:07:22;37.60;48.20
1123;DHT22;548;48.778;9.252;2022-07-23T10:09:50;37.70;48.80
1123;DHT22;548;48.778;9.252;2022-07-23T10:12:20;37.90;49.10
1123;DHT22;548;48.778;9.252;2022-07-23T10:15:13;37.60;48.50
1123;DHT22;548;48.778;9.252;2022-07-23T10:18:11;38.20;47.90
1123;DHT22;548;48.778;9.252;2022-07-23T10:20:38;37.50;48.60
1123;DHT22;548;48.778;9.252;2022-07-23T10:23:19;36.70;48.80
1123;DHT22;548;48.778;9.252;2022-07-23T10:25:54;35.20;51.90
1123;DHT22;548;48.778;9.252;2022-07-23T10:28:39;35.10;51.60
1123;DHT22;548;48.778;9.252;2022-07-23T10:31:17;35.10;52.30
1123;DHT22;548;48.778;9.252;2022-07-23T10:33:56;35.00;52.30
1123;DHT22;548;48.778;9.252;2022-07-23T10:36:32;34.90;52.80
1123;DHT22;548;48.778;9.252;2022-07-23T10:39:04;35.90;51.90
1123;DHT22;548;48.778;9.252;2022-07-23T10:41:33;36.80;50.40
1123;DHT22;548;48.778;9.252;2022-07-23T10:44:12;36.60;49.90
1123;DHT22;548;48.778;9.252;2022-07-23T10:46:57;36.90;49.80
1123;DHT22;548;48.778;9.252;2022-07-23T10:49:38;36.90;49.50
1123;DHT22;548;48.778;9.252;2022-07-23T10:52:25;37.30;49.20
1123;DHT22;548;48.778;9.252;2022-07-23T10:54:54;37.10;49.10
1123;DHT22;548;48.778;9.252;2022-07-23T10:57:22;37.30;49.20
1123;DHT22;548;48.778;9.252;2022-07-23T11:00:13;37.80;47.50
1123;DHT22;548;48.778;9.252;2022-07-23T11:02:43;37.50;48.10
1123;DHT22;548;48.778;9.252;2022-07-23T11:05:12;37.70;48.00
1123;DHT22;548;48.778;9.252;2022-07-23T11:10:50;37.70;48.60
1123;DHT22;548;48.778;9.252;2022-07-23T11:13:32;37.90;47.20
1123;DHT22;548;48.778;9.252;2022-07-23T11:16:19;37.20;49.00
1123;DHT22;548;48.778;9.252;2022-07-23T11:19:03;37.60;48.50
1123;DHT22;548;48.778;9.252;2022-07-23T11:21:47;37.70;47.90
1123;DHT22;548;48.778;9.252;2022-07-23T11:24:16;38.30;47.10
1123;DHT22;548;48.778;9.252;2022-07-23T11:26:46;37.80;47.60
1123;DHT22;548;48.778;9.252;2022-07-23T11:29:41;37.40;47.20
1123;DHT22;548;48.778;9.252;2022-07-23T11:32:23;37.20;47.70
1123;DHT22;548;48.778;9.252;2022-07-23T11:34:51;36.50;49.70
1123;DHT22;548;48.778;9.252;2022-07-23T11:37:36;36.40;49.80
1123;DHT22;548;48.778;9.252;2022-07-23T11:40:06;35.70;51.40
1123;DHT22;548;48.778;9.252;2022-07-23T11:42:35;35.60;52.60
1123;DHT22;548;48.778;9.252;2022-07-23T11:45:02;35.90;52.40
1123;DHT22;548;48.778;9.252;2022-07-23T11:47:31;35.70;50.70
1123;DHT22;548;48.778;9.252;2022-07-23T11:49:59;35.30;51.80
1123;DHT22;548;48.778;9.252;2022-07-23T11:52:27;34.50;52.60
1123;DHT22;548;48.778;9.252;2022-07-23T11:54:55;34.20;53.10
1123;DHT22;548;48.778;9.252;2022-07-23T11:57:25;34.20;53.30
1123;DHT22;548;48.778;9.252;2022-07-23T11:59:53;34.50;53.10
1123;DHT22;548;48.778;9.252;2022-07-23T12:02:22;35.30;51.30
1123;DHT22;548;48.778;9.252;2022-07-23T12:04:52;35.30;50.90
1123;DHT22;548;48.778;9.252;2022-07-23T12:07:26;34.80;51.60
1123;DHT22;548;48.778;9.252;2022-07-23T12:09:53;35.40;51.90
1123;DHT22;548;48.778;9.252;2022-07-23T12:12:21;35.90;50.20
1123;DHT22;548;48.778;9.252;2022-07-23T12:14:52;36.10;50.70
1123;DHT22;548;48.778;9.252;2022-07-23T12:17:20;35.90;50.90
1123;DHT22;548;48.778;9.252;2022-07-23T12:19:47;35.80;51.60
1123;DHT22;548;48.778;9.252;2022-07-23T12:22:16;36.30;50.70
1123;DHT22;548;48.778;9.252;2022-07-23T12:24:59;36.50;50.10
1123;DHT22;548;48.778;9.252;2022-07-23T12:27:28;36.10;50.60
1123;DHT22;548;48.778;9.252;2022-07-23T12:29:54;36.10;50.50
1123;DHT22;548;48.778;9.252;2022-07-23T12:32:22;35.80;50.80
1123;DHT22;548;48.778;9.252;2022-07-23T12:35:00;35.30;51.90
1123;DHT22;548;48.778;9.252;2022-07-23T12:37:32;35.00;52.80
1123;DHT22;548;48.778;9.252;2022-07-23T12:40:27;35.00;53.20
1123;DHT22;548;48.778;9.252;2022-07-23T12:42:56;34.80;53.20
1123;DHT22;548;48.778;9.252;2022-07-23T12:45:24;35.90;52.10
1123;DHT22;548;48.778;9.252;2022-07-23T12:47:59;36.30;51.10
1123;DHT22;548;48.778;9.252;2022-07-23T12:50:37;35.70;50.50
1123;DHT22;548;48.778;9.252;2022-07-23T12:53:08;34.80;52.50
1123;DHT22;548;48.778;9.252;2022-07-23T12:55:36;34.70;52.60
1123;DHT22;548;48.778;9.252;2022-07-23T12:58:05;34.80;52.40
1123;DHT22;548;48.778;9.252;2022-07-23T13:03:21;36.00;51.10
1123;DHT22;548;48.778;9.252;2022-07-23T13:05:48;35.60;51.00
1123;DHT22;548;48.778;9.252;2022-07-23T13:08:16;34.90;53.00
1123;DHT22;548;48.778;9.252;2022-07-23T13:10:42;35.00;52.20
1123;DHT22;548;48.778;9.252;2022-07-23T13:13:12;35.00;53.00
1123;DHT22;548;48.778;9.252;2022-07-23T13:15:39;35.50;52.50
1123;DHT22;548;48.778;9.252;2022-07-23T13:18:06;35.20;52.80
1123;DHT22;548;48.778;9.252;2022-07-23T13:20:32;35.20;52.50
1123;DHT22;548;48.778;9.252;2022-07-23T13:22:59;34.20;52.90
1123;DHT22;548;48.778;9.252;2022-07-23T13:25:27;34.70;53.30
1123;DHT22;548;48.778;9.252;2022-07-23T13:27:54;34.70;53.30
1123;DHT22;548;48.778;9.252;2022-07-23T13:30:21;34.50;53.20
1123;DHT22;548;48.778;9.252;2022-07-23T13:32:48;35.10;53.00
1123;DHT22;548;48.778;9.252;2022-07-23T13:35:15;35.30;52.40
1123;DHT22;548;48.778;9.252;2022-07-23T13:37:41;35.10;51.70
1123;DHT22;548;48.778;9.252;2022-07-23T13:40:09;35.10;52.10
1123;DHT22;548;48.778;9.252;2022-07-23T13:42:37;35.60;50.90
1123;DHT22;548;48.778;9.252;2022-07-23T13:45:05;35.20;51.50
1123;DHT22;548;48.778;9.252;2022-07-23T13:47:32;34.60;52.00
1123;DHT22;548;48.778;9.252;2022-07-23T13:49:59;34.90;51.70
1123;DHT22;548;48.778;9.252;2022-07-23T13:52:26;34.80;52.00
1123;DHT22;548;48.778;9.252;2022-07-23T13:54:52;34.90;52.30
1123;DHT22;548;48.778;9.252;2022-07-23T13:57:19;35.10;52.30
1123;DHT22;548;48.778;9.252;2022-07-23T13:59:47;34.70;52.60
1123;DHT22;548;48.778;9.252;2022-07-23T14:02:16;34.50;53.70
1123;DHT22;548;48.778;9.252;2022-07-23T14:04:43;33.90;54.40
1123;DHT22;548;48.778;9.252;2022-07-23T14:07:10;34.50;54.00
1123;DHT22;548;48.778;9.252;2022-07-23T14:09:37;34.70;53.40
1123;DHT22;548;48.778;9.252;2022-07-23T14:12:04;34.60;53.90
1123;DHT22;548;48.778;9.252;2022-07-23T14:14:31;34.50;53.60
1123;DHT22;548;48.778;9.252;2022-07-23T14:16:59;34.80;53.80
1123;DHT22;548;48.778;9.252;2022-07-23T14:19:26;34.10;54.70
1123;DHT22;548;48.778;9.252;2022-07-23T14:21:52;33.90;55.50
1123;DHT22;548;48.778;9.252;2022-07-23T14:24:19;34.00;56.10
1123;DHT22;548;48.778;9.252;2022-07-23T14:26:46;34.00;55.60
1123;DHT22;548;48.778;9.252;2022-07-23T14:29:12;33.80;55.30
1123;DHT22;548;48.778;9.252;2022-07-23T14:31:39;34.10;54.80
1123;DHT22;548;48.778;9.252;2022-07-23T14:34:07;35.00;53.60
1123;DHT22;548;48.778;9.252;2022-07-23T14:36:34;34.80;52.70
1123;DHT22;548;48.778;9.252;2022-07-23T14:39:01;33.90;53.80
1123;DHT22;548;48.778;9.252;2022-07-23T14:41:27;33.70;54.80
1123;DHT22;548;48.778;9.252;2022-07-23T14:43:54;33.70;54.00
1123;DHT22;548;48.778;9.252;2022-07-23T14:46:21;32.80;55.20
1123;DHT22;548;48.778;9.252;2022-07-23T14:48:48;32.70;55.40
1123;DHT22;548;48.778;9.252;2022-07-23T14:51:16;33.00;54.60
1123;DHT22;548;48.778;9.252;2022-07-23T14:53:42;33.40;54.20
1123;DHT22;548;48.778;9.252;2022-07-23T14:56:09;32.90;55.00
1123;DHT22;548;48.778;9.252;2022-07-23T14:58:36;32.60;55.50
1123;DHT22;548;48.778;9.252;2022-07-23T15:01:02;32.80;55.10
1123;DHT22;548;48.778;9.252;2022-07-23T15:03:29;32.90;55.80
1123;DHT22;548;48.778;9.252;2022-07-23T15:05:56;32.70;54.70
1123;DHT22;548;48.778;9.252;2022-07-23T15:08:24;32.40;55.20
1123;DHT22;548;48.778;9.252;2022-07-23T15:10:51;32.30;56.00
1123;DHT22;548;48.778;9.252;2022-07-23T15:13:18;32.10;56.40
1123;DHT22;548;48.778;9.252;2022-07-23T15:15:44;32.20;56.40
1123;DHT22;548;48.778;9.252;2022-07-23T15:18:12;32.60;53.90
1123;DHT22;548;48.778;9.252;2022-07-23T15:20:38;32.50;54.10
1123;DHT22;548;48.778;9.252;2022-07-23T15:23:05;32.50;55.10
1123;DHT22;548;48.778;9.252;2022-07-23T15:25:34;32.50;55.30
1123;DHT22;548;48.778;9.252;2022-07-23T15:28:01;32.40;56.20
1123;DHT22;548;48.778;9.252;2022-07-23T15:30:28;32.10;55.80
1123;DHT22;548;48.778;9.252;2022-07-23T15:32:54;32.00;56.40
1123;DHT22;548;48.778;9.252;2022-07-23T15:35:23;32.00;56.50
1123;DHT22;548;48.778;9.252;2022-07-23T15:37:50;31.70;56.50
1123;DHT22;548;48.778;9.252;2022-07-23T15:40:16;31.50;57.00
1123;DHT22;548;48.778;9.252;2022-07-23T15:42:44;31.40;57.40
1123;DHT22;548;48.778;9.252;2022-07-23T15:45:11;31.50;57.10
1123;DHT22;548;48.778;9.252;2022-07-23T15:47:38;31.60;57.50
1123;DHT22;548;48.778;9.252;2022-07-23T15:50:07;31.60;57.30
1123;DHT22;548;48.778;9.252;2022-07-23T15:52:34;31.50;58.00
1123;DHT22;548;48.778;9.252;2022-07-23T15:55:01;31.50;57.60
1123;DHT22;548;48.778;9.252;2022-07-23T15:57:28;31.50;57.50
1123;DHT22;548;48.778;9.252;2022-07-23T15:59:56;31.30;57.50
1123;DHT22;548;48.778;9.252;2022-07-23T16:02:23;31.30;58.40
1123;DHT22;548;48.778;9.252;2022-07-23T16:04:50;31.20;57.60
1123;DHT22;548;48.778;9.252;2022-07-23T16:07:17;31.20;58.20
1123;DHT22;548;48.778;9.252;2022-07-23T16:09:44;31.10;57.80
1123;DHT22;548;48.778;9.252;2022-07-23T16:12:11;31.20;57.90
1123;DHT22;548;48.778;9.252;2022-07-23T16:14:38;31.10;58.50
1123;DHT22;548;48.778;9.252;2022-07-23T16:17:06;31.20;58.60
1123;DHT22;548;48.778;9.252;2022-07-23T16:19:33;31.00;58.10
1123;DHT22;548;48.778;9.252;2022-07-23T16:21:59;31.00;58.50
1123;DHT22;548;48.778;9.252;2022-07-23T16:24:26;30.90;58.90
1123;DHT22;548;48.778;9.252;2022-07-23T16:26:53;30.70;58.80
1123;DHT22;548;48.778;9.252;2022-07-23T16:29:20;30.40;59.60
1123;DHT22;548;48.778;9.252;2022-07-23T16:31:47;30.50;60.10